Time;durP1;ratioP1;P1;durP2;ratioP2;P2;SDS_P1;SDS_P2;PMS_P1;PMS_P2;Temp;Humidity;BMP_temperature;BMP_pressure;BME280_temperature;BME280_humidity;BME280_pressure;Samples;Min_cycle;Max_cycle;Signal;HPM_P1;HPM_P2
2021/11/15 00:02:22;;;;;;;16.13;10.10;;;;;;;10.11;68.17;100945.28;6124007;23;20026;-61
2021/11/15 00:04:50;;;;;;;14.77;9.43;;;;;;;10.13;68.17;100946.06;6098879;23;20033;-63
2021/11/15 00:07:17;;;;;;;15.40;9.95;;;;;;;10.12;68.15;100944.38;6098306;23;20025;-62
2021/11/15 00:09:44;;;;;;;13.98;9.48;;;;;;;10.13;67.84;100946.06;6124218;23;20022;-63
2021/11/15 00:12:12;;;;;;;14.90;10.13;;;;;;;10.11;67.77;100947.03;6124120;23;20054;-61
2021/11/15 00:14:39;;;;;;;14.98;9.60;;;;;;;10.08;67.59;100942.75;6124715;23;20026;-62
2021/11/15 00:17:07;;;;;;;13.75;9.13;;;;;;;10.04;67.64;100935.88;6098769;23;20030;-62
2021/11/15 00:19:34;;;;;;;15.52;9.90;;;;;;;10.00;67.50;100948.31;6098173;23;20022;-64
2021/11/15 00:22:00;;;;;;;13.35;9.13;;;;;;;9.97;67.72;100943.13;6124128;23;20057;-61
2021/11/15 00:24:27;;;;;;;12.25;8.68;;;;;;;9.93;67.63;100941.53;6124548;23;20395;-61
2021/11/15 00:26:54;;;;;;;14.25;9.75;;;;;;;9.92;67.87;100945.09;6124038;23;20032;-63
2021/11/15 00:29:20;;;;;;;14.23;9.77;;;;;;;9.89;67.92;100938.16;6123524;23;20407;-61
2021/11/15 00:31:47;;;;;;;13.50;9.30;;;;;;;9.88;67.88;100941.69;6124587;23;20026;-61
2021/11/15 00:34:14;;;;;;;15.20;10.38;;;;;;;9.87;68.03;100947.84;6123512;23;20022;-63
2021/11/15 00:36:41;;;;;;;16.35;11.05;;;;;;;9.86;68.07;100943.53;6124391;23;20022;-62
2021/11/15 00:39:08;;;;;;;16.23;11.43;;;;;;;9.87;68.07;100947.03;6123580;23;20530;-61
2021/11/15 00:41:35;;;;;;;18.48;12.40;;;;;;;9.87;68.06;100944.38;6123706;23;20022;-61
2021/11/15 00:44:01;;;;;;;18.35;12.32;;;;;;;9.87;67.99;100950.50;6123960;23;20018;-61
2021/11/15 00:46:28;;;;;;;19.00;12.57;;;;;;;9.87;67.95;100931.25;6124040;23;20026;-63
2021/11/15 00:48:55;;;;;;;18.20;11.85;;;;;;;9.85;67.90;100931.28;6124368;23;20081;-61
2021/11/15 00:51:27;;;;;;;17.58;12.07;;;;;;;9.82;67.94;100944.53;6123931;23;20026;-62
2021/11/15 00:53:56;;;;;;;17.75;11.73;;;;;;;9.80;67.70;100935.84;6098083;23;20032;-62
2021/11/15 00:56:24;;;;;;;18.42;10.98;;;;;;;9.78;67.91;100938.53;6123973;23;20041;-63
2021/11/15 00:58:51;;;;;;;14.25;9.93;;;;;;;9.74;67.82;100928.16;6098359;23;20030;-63
2021/11/15 01:01:18;;;;;;;15.40;9.68;;;;;;;9.70;67.83;100930.06;6123200;23;20026;-61
2021/11/15 01:03:45;;;;;;;15.93;9.98;;;;;;;9.67;67.87;100935.41;6098178;23;20026;-62
2021/11/15 01:06:12;;;;;;;16.05;10.93;;;;;;;9.64;68.14;100930.25;6123428;23;20026;-61
2021/11/15 01:08:39;;;;;;;16.83;9.82;;;;;;;9.60;68.05;100934.75;6123900;23;20084;-62
2021/11/15 01:11:06;;;;;;;14.27;9.45;;;;;;;9.58;67.90;100933.09;6123074;23;20073;-62
2021/11/15 01:13:33;;;;;;;13.98;9.20;;;;;;;9.55;67.96;100931.44;6123780;23;20090;-61
2021/11/15 01:16:00;;;;;;;13.93;8.77;;;;;;;9.51;67.92;100930.69;6097835;23;20523;-61
2021/11/15 01:18:27;;;;;;;14.32;9.70;;;;;;;9.47;67.86;100921.19;6123909;23;20018;-63
2021/11/15 01:20:53;;;;;;;15.10;9.00;;;;;;;9.46;67.76;100931.75;6122875;23;20529;-63
2021/11/15 01:23:20;;;;;;;15.90;9.63;;;;;;;9.42;68.12;100927.50;6123481;23;20097;-61
2021/11/15 01:25:47;;;;;;;14.93;9.38;;;;;;;9.38;68.03;100932.84;6123284;23;20109;-63
2021/11/15 01:28:14;;;;;;;15.40;10.23;;;;;;;9.36;67.94;100929.44;6123783;23;20084;-61
2021/11/15 01:30:41;;;;;;;17.05;10.10;;;;;;;9.33;68.39;100923.38;6123414;23;20018;-61
2021/11/15 01:33:08;;;;;;;16.40;10.43;;;;;;;9.31;67.97;100927.84;6123521;23;20064;-62
2021/11/15 01:35:35;;;;;;;20.50;11.23;;;;;;;9.27;67.98;100928.88;6123278;23;20447;-61
2021/11/15 01:38:03;;;;;;;18.80;11.93;;;;;;;9.24;68.45;100922.78;6123399;23;20394;-62
2021/11/15 01:40:32;;;;;;;20.33;11.32;;;;;;;9.22;68.17;100929.88;6097448;23;20044;-63
2021/11/15 01:43:01;;;;;;;20.38;12.02;;;;;;;9.21;68.46;100928.16;6097892;23;20545;-62
2021/11/15 01:45:30;;;;;;;18.73;12.55;;;;;;;9.20;68.51;100930.81;6122675;23;20018;-65
2021/11/15 01:47:59;;;;;;;18.13;12.23;;;;;;;9.20;68.80;100931.66;6098246;23;20044;-62
2021/11/15 01:50:27;;;;;;;17.63;12.07;;;;;;;9.19;68.46;100934.38;6123251;23;20455;-64
2021/11/15 01:52:54;;;;;;;20.38;12.32;;;;;;;9.19;68.80;100934.38;6123763;23;20532;-63
2021/11/15 01:55:24;;;;;;;18.73;12.40;;;;;;;9.19;68.96;100937.84;6123718;23;20037;-61
2021/11/15 01:57:52;;;;;;;23.60;13.00;;;;;;;9.21;68.91;100935.16;6096898;23;20025;-63
2021/11/15 02:00:35;;;;;;;20.40;12.63;;;;;;;9.20;68.96;100943.97;6097797;23;20395;-61
2021/11/15 02:03:02;;;;;;;21.90;12.07;;;;;;;9.22;68.68;100943.00;6097242;23;20370;-63
2021/11/15 02:05:29;;;;;;;21.80;13.23;;;;;;;9.23;68.70;100939.47;6123619;23;20018;-61
2021/11/15 02:07:56;;;;;;;20.75;12.85;;;;;;;9.23;68.92;100928.06;6123261;23;20482;-62
2021/11/15 02:10:23;;;;;;;24.65;13.40;;;;;;;9.23;68.94;100922.81;6122826;23;20030;-62
2021/11/15 02:12:50;;;;;;;22.20;13.18;;;;;;;9.24;68.81;100929.81;6097671;23;20032;-61
2021/11/15 02:15:17;;;;;;;22.08;13.20;;;;;;;9.25;68.84;100926.28;6123426;23;20030;-61
2021/11/15 02:17:46;;;;;;;21.52;12.63;;;;;;;9.23;68.86;100933.34;6097799;23;20073;-60
2021/11/15 02:20:19;;;;;;;22.40;12.95;;;;;;;9.23;69.05;100923.69;6097393;23;20030;-61
2021/11/15 02:22:46;;;;;;;23.50;13.75;;;;;;;9.24;69.06;100917.53;6097576;23;20428;-62
2021/11/15 02:25:15;;;;;;;22.77;13.00;;;;;;;9.23;68.73;100915.81;6123847;23;20390;-61
2021/11/15 02:27:42;;;;;;;23.17;13.60;;;;;;;9.22;68.59;100919.34;6097557;23;20022;-62
2021/11/15 02:30:13;;;;;;;24.40;13.77;;;;;;;9.21;68.85;100915.03;6097445;23;20072;-60
2021/11/15 02:32:40;;;;;;;20.80;12.48;;;;;;;9.21;68.55;100908.91;6097615;23;20022;-62
2021/11/15 02:35:09;;;;;;;20.65;12.65;;;;;;;9.19;68.63;100914.19;6097368;23;20026;-62
2021/11/15 02:37:37;;;;;;;21.35;12.43;;;;;;;9.17;68.46;100913.41;6123110;23;20022;-61
2021/11/15 02:40:07;;;;;;;26.73;13.10;;;;;;;9.15;68.76;100917.84;6123516;23;20088;-61
2021/11/15 02:42:34;;;;;;;22.67;13.35;;;;;;;9.14;68.74;100908.25;6123006;23;20034;-64
2021/11/15 02:45:04;;;;;;;23.38;13.55;;;;;;;9.13;68.95;100911.78;6123439;23;20022;-61
2021/11/15 02:47:31;;;;;;;23.17;12.75;;;;;;;9.13;68.88;100907.38;6123246;23;20042;-61
2021/11/15 02:49:58;;;;;;;24.00;13.35;;;;;;;9.12;68.79;100902.16;6122732;23;20351;-63
2021/11/15 02:52:25;;;;;;;21.02;12.07;;;;;;;9.10;68.42;100910.13;6097530;23;20029;-63
2021/11/15 02:54:51;;;;;;;27.35;13.20;;;;;;;9.09;68.47;100899.66;6123399;23;20085;-62
2021/11/15 02:57:20;;;;;;;23.85;13.75;;;;;;;9.07;68.67;100901.47;6124504;23;20454;-61
2021/11/15 02:59:47;;;;;;;23.55;13.18;;;;;;;9.07;68.79;100910.22;6098981;23;20029;-60
2021/11/15 03:02:15;;;;;;;20.40;12.32;;;;;;;9.07;68.62;100904.09;6124743;23;20424;-62
2021/11/15 03:04:45;;;;;;;20.98;12.32;;;;;;;9.06;68.73;100905.00;6124776;23;20113;-61
2021/11/15 03:07:12;;;;;;;21.50;11.85;;;;;;;9.05;68.59;100903.28;6099045;23;20466;-61
2021/11/15 03:09:39;;;;;;;22.83;12.20;;;;;;;9.03;68.47;100908.59;6124979;23;20077;-63
2021/11/15 03:12:08;;;;;;;21.60;12.13;;;;;;;9.02;68.53;100904.25;6124995;23;20041;-62
2021/11/15 03:14:35;;;;;;;17.73;11.15;;;;;;;9.02;68.36;100896.38;6099176;23;20466;-61
2021/11/15 03:17:02;;;;;;;18.30;10.82;;;;;;;9.00;68.31;100892.91;6125153;23;20025;-64
2021/11/15 03:19:30;;;;;;;18.65;11.15;;;;;;;8.97;68.66;100893.88;6124240;23;20033;-61
2021/11/15 03:21:56;;;;;;;18.40;9.90;;;;;;;8.95;68.50;100892.22;6124976;23;20036;-61
2021/11/15 03:24:23;;;;;;;18.38;10.60;;;;;;;8.93;68.49;100891.41;6124347;23;20026;-61
2021/11/15 03:26:49;;;;;;;19.23;11.45;;;;;;;8.92;68.75;100889.66;6125019;23;20021;-62
2021/11/15 03:29:16;;;;;;;21.25;11.50;;;;;;;8.90;68.94;100889.72;6124505;23;20041;-61
2021/11/15 03:31:44;;;;;;;19.15;10.50;;;;;;;8.90;68.60;100894.97;6124893;23;20324;-62
2021/11/15 03:34:13;;;;;;;18.25;9.93;;;;;;;8.88;68.64;100894.19;6099263;23;20116;-61
2021/11/15 03:36:43;;;;;;;18.48;10.05;;;;;;;8.89;68.90;100892.41;6099051;23;20423;-62
2021/11/15 03:39:12;;;;;;;19.52;10.95;;;;;;;8.88;68.48;100891.53;6098662;23;20037;-65
2021/11/15 03:41:40;;;;;;;15.13;9.93;;;;;;;8.86;68.60;100888.13;6087562;23;20022;-62
2021/11/15 03:44:09;;;;;;;19.48;10.52;;;;;;;8.85;68.50;100891.63;6124634;23;20022;-61
2021/11/15 03:46:36;;;;;;;18.55;10.18;;;;;;;8.83;68.80;100891.69;6098771;23;20029;-61
2021/11/15 03:49:03;;;;;;;18.02;10.73;;;;;;;8.81;68.54;100896.13;6098818;23;20022;-61
2021/11/15 03:51:31;;;;;;;18.15;10.90;;;;;;;8.79;68.75;100892.69;6124281;23;20451;-60
2021/11/15 03:53:57;;;;;;;16.92;10.50;;;;;;;8.77;68.59;100897.13;6124582;23;20022;-63
2021/11/15 03:56:26;;;;;;;20.42;11.63;;;;;;;8.76;68.88;100902.44;6123931;23;20026;-61
2021/11/15 03:58:55;;;;;;;17.67;10.50;;;;;;;8.73;68.92;100899.00;6124356;23;20030;-61
2021/11/15 04:01:26;;;;;;;21.42;11.23;;;;;;;8.73;68.80;100904.25;6123757;23;20054;-61
2021/11/15 04:03:58;;;;;;;20.10;10.88;;;;;;;8.71;68.83;100898.19;6124553;23;20101;-62
2021/11/15 04:06:28;;;;;;;19.65;10.65;;;;;;;8.71;69.11;100902.59;6124086;23;20036;-63
2021/11/15 04:08:57;;;;;;;21.13;10.93;;;;;;;8.70;68.96;100904.34;6124512;23;20037;-61
2021/11/15 04:11:26;;;;;;;17.83;10.43;;;;;;;8.70;69.22;100899.09;6124457;23;20018;-61
2021/11/15 04:13:57;;;;;;;18.27;9.90;;;;;;;8.69;68.93;100901.75;6099097;23;20054;-61
2021/11/15 04:16:24;;;;;;;17.98;10.45;;;;;;;8.67;68.99;100903.59;6098517;23;20026;-61
2021/11/15 04:19:07;;;;;;;18.38;10.05;;;;;;;8.64;69.07;100906.28;6124340;23;20088;-63
2021/11/15 04:21:34;;;;;;;20.25;11.13;;;;;;;8.64;69.06;100894.03;6098257;23;20041;-63
2021/11/15 04:24:02;;;;;;;22.98;12.05;;;;;;;8.63;68.77;100894.94;6124680;23;20030;-63
2021/11/15 04:26:29;;;;;;;17.75;10.30;;;;;;;8.62;69.18;100903.72;6098587;23;20029;-61
2021/11/15 04:28:56;;;;;;;19.95;11.63;;;;;;;8.62;68.96;100901.09;6124270;23;20030;-61
2021/11/15 04:31:23;;;;;;;21.05;11.57;;;;;;;8.61;69.28;100904.63;6123611;23;20064;-61
2021/11/15 04:33:51;;;;;;;19.85;11.25;;;;;;;8.62;69.28;100905.47;6123814;23;20026;-62
2021/11/15 04:36:18;;;;;;;21.42;11.55;;;;;;;8.62;69.28;100906.34;6098241;23;20060;-61
2021/11/15 04:38:45;;;;;;;25.63;12.38;;;;;;;8.63;68.93;100900.19;6098403;23;20026;-63
2021/11/15 04:41:12;;;;;;;21.60;11.90;;;;;;;8.64;68.85;100896.66;6123888;23;20132;-60
2021/11/15 04:43:39;;;;;;;21.05;11.75;;;;;;;8.63;69.26;100899.34;6098186;23;20073;-62
2021/11/15 04:46:06;;;;;;;23.92;12.52;;;;;;;8.62;69.07;100901.09;6123991;23;20030;-61
2021/11/15 04:48:32;;;;;;;22.20;11.88;;;;;;;8.59;69.02;100899.41;6123764;23;20390;-60
2021/11/15 04:51:00;;;;;;;25.35;13.00;;;;;;;8.57;69.13;100895.13;6123970;23;20029;-61
2021/11/15 04:53:27;;;;;;;23.67;13.50;;;;;;;8.56;69.01;100902.13;6098370;23;20022;-60
2021/11/15 04:55:53;;;;;;;23.60;13.10;;;;;;;8.55;69.13;100899.53;6124120;23;20057;-64
2021/11/15 04:58:20;;;;;;;28.80;14.85;;;;;;;8.56;69.47;100896.03;6124131;23;20053;-61
2021/11/15 05:00:47;;;;;;;24.95;13.98;;;;;;;8.56;69.22;100896.03;6123935;23;20041;-61
2021/11/15 05:03:16;;;;;;;32.70;14.80;;;;;;;8.57;69.23;100903.00;6123370;23;20572;-61
2021/11/15 05:05:44;;;;;;;28.52;14.32;;;;;;;8.57;69.45;100893.34;6123967;23;20033;-61
2021/11/15 05:08:11;;;;;;;36.88;16.70;;;;;;;8.57;69.32;100890.72;6097992;23;20030;-62
2021/11/15 05:10:37;;;;;;;31.42;15.75;;;;;;;8.58;69.44;100888.97;6123228;23;20024;-61
2021/11/15 05:13:04;;;;;;;26.80;13.63;;;;;;;8.56;69.17;100891.63;6123960;23;20481;-61
2021/11/15 05:15:30;;;;;;;27.70;13.90;;;;;;;8.57;69.33;100889.88;6123930;23;20026;-61
2021/11/15 05:17:58;;;;;;;29.05;14.45;;;;;;;8.57;69.31;100893.34;6123671;23;20466;-61
2021/11/15 05:20:25;;;;;;;33.92;14.88;;;;;;;8.57;69.51;100901.22;6123415;23;20153;-61
2021/11/15 05:22:52;;;;;;;31.88;14.68;;;;;;;8.58;69.51;100896.84;6123720;23;20330;-61
2021/11/15 05:25:20;;;;;;;31.65;15.77;;;;;;;8.59;69.53;100901.16;6123868;23;20092;-63
2021/11/15 05:27:47;;;;;;;29.50;15.20;;;;;;;8.59;69.21;100901.16;6098116;23;20025;-63
2021/11/15 05:30:16;;;;;;;26.30;13.73;;;;;;;8.58;69.24;100894.22;6097457;23;20451;-61
2021/11/15 05:32:45;;;;;;;28.75;14.30;;;;;;;8.57;69.22;100893.34;6097818;23;20022;-62
2021/11/15 05:35:12;;;;;;;26.58;13.32;;;;;;;8.56;68.99;100891.63;6097910;23;20022;-60
2021/11/15 05:37:39;;;;;;;26.15;13.05;;;;;;;8.55;69.11;100897.78;6097446;23;20521;-62
2021/11/15 05:40:07;;;;;;;28.17;12.65;;;;;;;8.54;69.08;100900.47;6097947;23;20029;-62
2021/11/15 05:42:34;;;;;;;23.95;12.77;;;;;;;8.55;68.88;100894.28;6123126;23;20018;-61
2021/11/15 05:45:02;;;;;;;31.42;13.25;;;;;;;8.52;69.20;100900.47;6097994;23;20110;-62
2021/11/15 05:47:30;;;;;;;28.60;12.85;;;;;;;8.52;69.10;100899.63;6121915;23;20030;-61
2021/11/15 05:49:57;;;;;;;28.80;13.05;;;;;;;8.50;68.96;100894.41;6123567;23;20018;-61
2021/11/15 05:52:24;;;;;;;30.33;13.35;;;;;;;8.48;69.17;100891.84;6123673;23;20029;-62
2021/11/15 05:54:52;;;;;;;30.83;12.93;;;;;;;8.46;68.91;100884.91;6123587;23;20034;-61
2021/11/15 05:57:19;;;;;;;30.67;12.52;;;;;;;8.44;69.11;100884.09;6097783;23;20022;-60
2021/11/15 05:59:46;;;;;;;25.90;12.15;;;;;;;8.42;69.02;100884.16;6123129;23;20036;-61
2021/11/15 06:02:14;;;;;;;29.13;13.63;;;;;;;8.41;69.11;100889.44;6123714;23;20022;-61
2021/11/15 06:04:41;;;;;;;32.20;13.88;;;;;;;8.38;68.92;100886.91;6123294;23;20485;-60
2021/11/15 06:07:07;;;;;;;28.60;13.48;;;;;;;8.36;68.92;100881.69;6123087;23;20458;-62
2021/11/15 06:09:34;;;;;;;27.05;12.55;;;;;;;8.34;69.24;100883.53;6123162;23;20022;-62
2021/11/15 06:12:00;;;;;;;30.80;12.73;;;;;;;8.33;69.32;100892.28;6123644;23;20029;-61
2021/11/15 06:14:27;;;;;;;29.08;13.40;;;;;;;8.33;69.30;100892.28;6123359;23;20081;-61
2021/11/15 06:16:54;;;;;;;27.77;12.13;;;;;;;8.33;69.37;100895.78;6123611;23;20018;-62
2021/11/15 06:19:20;;;;;;;27.33;13.30;;;;;;;8.33;69.47;100893.16;6123124;23;20092;-62
2021/11/15 06:21:47;;;;;;;27.10;12.52;;;;;;;8.35;68.95;100895.72;6123687;23;20026;-61
2021/11/15 06:24:14;;;;;;;31.35;13.75;;;;;;;8.34;68.91;100894.84;6123121;23;20034;-63
2021/11/15 06:26:42;;;;;;;23.92;12.25;;;;;;;8.34;69.22;100900.09;6123491;23;20034;-63
2021/11/15 06:29:09;;;;;;;24.73;12.52;;;;;;;8.34;69.14;100899.28;6122713;23;20033;-60
2021/11/15 06:31:35;;;;;;;25.55;12.27;;;;;;;8.35;68.91;100900.97;6123684;23;20101;-61
2021/11/15 06:34:02;;;;;;;23.98;12.27;;;;;;;8.37;69.15;100899.16;6125140;23;20021;-62
2021/11/15 06:36:29;;;;;;;27.75;12.80;;;;;;;8.38;68.90;100894.78;6125482;23;20022;-61
2021/11/15 06:38:57;;;;;;;24.83;12.70;;;;;;;8.39;69.19;100902.63;6125306;23;20018;-61
2021/11/15 06:41:24;;;;;;;23.50;11.65;;;;;;;8.39;68.87;100897.38;6125401;23;20030;-60
2021/11/15 06:43:52;;;;;;;24.30;12.70;;;;;;;8.40;69.13;100909.56;6099211;23;20489;-61
2021/11/15 06:46:19;;;;;;;24.55;12.15;;;;;;;8.38;68.70;100911.41;6123708;23;20022;-61
2021/11/15 06:48:46;;;;;;;22.98;11.73;;;;;;;8.37;68.96;100916.69;6125477;23;20022;-63
2021/11/15 06:51:32;;;;;;;19.45;10.05;;;;;;;8.35;68.67;100922.81;6124780;23;20030;-65
2021/11/15 06:53:59;;;;;;;23.30;11.65;;;;;;;8.34;69.02;100912.38;6125234;23;20030;-61
2021/11/15 06:56:26;;;;;;;26.70;12.07;;;;;;;8.34;68.80;100915.00;6125175;23;20018;-61
2021/11/15 06:58:52;;;;;;;25.83;11.77;;;;;;;8.32;69.23;100922.03;6124978;23;20037;-63
2021/11/15 07:01:20;;;;;;;21.67;11.48;;;;;;;8.33;68.89;100923.75;6124254;23;20018;-60
2021/11/15 07:03:47;;;;;;;25.10;12.75;;;;;;;8.32;69.33;100924.66;6075726;23;20026;-63
2021/11/15 07:06:15;;;;;;;24.70;12.77;;;;;;;8.33;69.11;100929.00;6125211;23;20022;-61
2021/11/15 07:08:46;;;;;;;21.48;11.13;;;;;;;8.35;69.17;100924.59;6100266;23;20041;-60
2021/11/15 07:11:13;;;;;;;21.33;11.15;;;;;;;8.36;68.90;100921.06;6099056;23;20033;-62
2021/11/15 07:13:40;;;;;;;20.35;10.27;;;;;;;8.37;68.80;100925.38;6099559;23;20035;-60
2021/11/15 07:16:06;;;;;;;22.70;10.80;;;;;;;8.35;68.75;100930.69;6125215;23;20657;-60
2021/11/15 07:18:33;;;;;;;19.30;10.15;;;;;;;8.32;68.49;100922.91;6124976;23;20026;-61
2021/11/15 07:21:03;;;;;;;18.15;9.70;;;;;;;8.31;69.04;100921.22;6124368;23;20053;-60
2021/11/15 07:23:30;;;;;;;19.13;10.00;;;;;;;8.30;68.65;100929.97;6099251;23;20037;-61
2021/11/15 07:25:57;;;;;;;17.90;9.93;;;;;;;8.29;68.52;100928.25;6099154;23;20042;-62
2021/11/15 07:28:24;;;;;;;21.40;10.93;;;;;;;8.28;68.43;100930.91;6124826;23;20030;-61
2021/11/15 07:30:54;;;;;;;24.13;11.57;;;;;;;8.27;68.67;100932.69;6124034;23;20069;-60
2021/11/15 07:33:23;;;;;;;24.20;12.32;;;;;;;8.26;68.91;100937.97;6099142;23;20026;-62
2021/11/15 07:35:50;;;;;;;20.58;11.35;;;;;;;8.27;68.94;100937.06;6099001;23;20485;-61
2021/11/15 07:38:17;;;;;;;22.58;11.20;;;;;;;8.26;69.13;100936.19;6125005;23;20018;-60
2021/11/15 07:40:45;;;;;;;21.30;11.20;;;;;;;8.29;69.19;100935.25;6098689;23;20022;-61
2021/11/15 07:43:12;;;;;;;20.80;11.77;;;;;;;8.32;68.97;100935.16;6124055;23;20025;-61
2021/11/15 07:45:40;;;;;;;19.70;11.63;;;;;;;8.33;69.18;100934.25;6125352;23;20056;-62
2021/11/15 07:48:07;;;;;;;23.08;11.93;;;;;;;8.34;68.99;100926.34;6124660;23;20092;-60
2021/11/15 07:50:35;;;;;;;22.00;12.32;;;;;;;8.35;68.96;100925.44;6124608;23;20382;-62
2021/11/15 07:53:03;;;;;;;23.58;12.63;;;;;;;8.37;69.01;100937.66;6098645;23;20044;-60
2021/11/15 07:55:30;;;;;;;27.65;12.75;;;;;;;8.39;69.18;100938.47;6098639;23;20594;-63
2021/11/15 07:57:59;;;;;;;25.55;13.55;;;;;;;8.40;69.16;100937.56;6098596;23;20030;-60
2021/11/15 08:00:25;;;;;;;26.80;14.38;;;;;;;8.40;68.91;100940.19;6098544;23;20657;-60
2021/11/15 08:02:53;;;;;;;27.70;15.45;;;;;;;8.41;68.82;100942.75;6124649;23;20081;-61
2021/11/15 08:05:21;;;;;;;28.67;15.07;;;;;;;8.40;68.86;100948.94;6124503;23;20463;-62
2021/11/15 08:07:48;;;;;;;26.05;14.90;;;;;;;8.40;68.98;100946.31;6124569;23;20041;-60
2021/11/15 08:10:17;;;;;;;28.23;15.93;;;;;;;8.40;68.83;100951.56;6098402;23;20033;-61
2021/11/15 08:12:47;;;;;;;28.52;16.25;;;;;;;8.40;68.99;100946.31;6098652;23;20018;-60
2021/11/15 08:15:16;;;;;;;30.10;16.23;;;;;;;8.40;68.66;100940.19;6098742;23;20030;-61
2021/11/15 08:17:47;;;;;;;33.15;16.83;;;;;;;8.40;68.64;100946.31;6124241;23;20022;-60
2021/11/15 08:20:22;;;;;;;30.02;17.88;;;;;;;8.40;68.62;100942.81;6098838;23;20037;-60
2021/11/15 08:22:53;;;;;;;30.08;16.80;;;;;;;8.43;68.62;100947.97;6124277;23;20431;-60
2021/11/15 08:25:56;;;;;;;30.80;16.23;;;;;;;8.40;68.47;100943.69;6124367;23;20085;-60
2021/11/15 08:28:27;;;;;;;29.55;17.45;;;;;;;8.44;68.57;100941.81;6124114;23;20030;-61
2021/11/15 08:30:55;;;;;;;31.85;18.08;;;;;;;8.44;68.24;100941.81;6098103;23;20476;-61
2021/11/15 08:33:22;;;;;;;38.47;18.58;;;;;;;8.44;68.47;100937.44;6098464;23;20045;-60
2021/11/15 08:35:49;;;;;;;38.83;21.35;;;;;;;8.45;68.39;100938.31;6124221;23;20025;-61
2021/11/15 08:38:16;;;;;;;35.90;20.05;;;;;;;8.43;68.13;100930.47;6123965;23;20073;-60
2021/11/15 08:40:51;;;;;;;38.90;20.42;;;;;;;8.39;68.25;100928.84;6124043;23;20022;-60
2021/11/15 08:43:22;;;;;;;40.58;20.98;;;;;;;8.42;68.12;100933.16;6098344;23;20502;-60
2021/11/15 08:45:49;;;;;;;44.45;22.75;;;;;;;8.40;68.47;100930.56;6098447;23;20140;-63
2021/11/15 08:48:16;;;;;;;44.28;21.70;;;;;;;8.40;68.57;100927.94;6098085;23;20073;-61
2021/11/15 08:50:43;;;;;;;49.10;23.70;;;;;;;8.41;68.31;100928.81;6123388;23;20096;-61
2021/11/15 08:53:10;;;;;;;44.45;22.20;;;;;;;8.40;68.29;100924.44;6123923;23;20024;-61
2021/11/15 08:55:37;;;;;;;48.85;22.15;;;;;;;8.40;68.28;100925.31;6123549;23;20025;-63
2021/11/15 08:58:04;;;;;;;54.33;24.50;;;;;;;8.38;68.44;100929.75;6123678;23;20026;-62
2021/11/15 09:00:31;;;;;;;46.35;22.60;;;;;;;8.36;68.44;100923.69;6123478;23;20038;-61
2021/11/15 09:02:58;;;;;;;55.72;24.80;;;;;;;8.37;68.51;100927.19;6098079;23;20332;-62
2021/11/15 09:05:25;;;;;;;53.85;24.45;;;;;;;8.36;68.16;100928.94;6124182;23;20030;-62
2021/11/15 09:07:52;;;;;;;53.53;24.50;;;;;;;8.37;68.20;100935.88;6123832;23;20030;-61
2021/11/15 09:10:18;;;;;;;58.70;25.10;;;;;;;8.36;68.15;100934.19;6123735;23;20018;-62
2021/11/15 09:12:46;;;;;;;54.60;24.55;;;;;;;8.35;68.07;100935.09;6124042;23;20022;-60
2021/11/15 09:15:16;;;;;;;51.20;22.20;;;;;;;8.35;68.19;100935.94;6123800;23;20076;-60
2021/11/15 09:17:45;;;;;;;58.08;24.15;;;;;;;8.35;68.36;100932.47;6123886;23;20029;-61
2021/11/15 09:20:13;;;;;;;59.70;24.55;;;;;;;8.37;68.18;100933.25;6123039;23;20418;-62
2021/11/15 09:22:40;;;;;;;51.05;23.08;;;;;;;8.39;68.34;100941.97;6123750;23;20774;-61
2021/11/15 09:25:09;;;;;;;47.67;22.40;;;;;;;8.38;68.26;100928.88;6123768;23;20022;-61
2021/11/15 09:27:38;;;;;;;50.42;22.92;;;;;;;8.37;67.95;100922.78;6098234;23;20021;-62
2021/11/15 09:30:06;;;;;;;49.22;22.35;;;;;;;8.38;67.97;100928.88;6121463;23;20021;-62
2021/11/15 09:32:34;;;;;;;52.10;21.48;;;;;;;8.38;68.11;100918.38;6123702;23;20018;-61
2021/11/15 09:35:01;;;;;;;50.35;22.58;;;;;;;8.37;67.90;100925.38;6123389;23;20026;-60
2021/11/15 09:37:28;;;;;;;52.88;22.77;;;;;;;8.38;68.18;100924.50;6124119;23;20022;-61
2021/11/15 09:39:55;;;;;;;57.05;23.67;;;;;;;8.37;68.17;100928.00;6123499;23;20026;-62
2021/11/15 09:42:23;;;;;;;47.60;22.05;;;;;;;8.36;68.10;100936.81;6097755;23;20034;-62
2021/11/15 09:44:50;;;;;;;43.90;21.42;;;;;;;8.36;68.43;100936.81;6098038;23;20022;-63
2021/11/15 09:47:18;;;;;;;50.78;22.27;;;;;;;8.37;67.87;100943.75;6097409;23;20022;-61
2021/11/15 09:49:45;;;;;;;51.47;24.23;;;;;;;8.39;68.04;100946.34;6123471;23;20021;-61
2021/11/15 09:52:13;;;;;;;52.20;22.88;;;;;;;8.39;67.95;100939.34;6097643;23;20486;-62
2021/11/15 09:54:40;;;;;;;51.65;24.20;;;;;;;8.40;68.14;100941.06;6098142;23;20018;-61
2021/11/15 09:57:25;;;;;;;50.55;23.38;;;;;;;8.43;67.99;100933.09;6101438;23;20034;-61
2021/11/15 09:59:52;;;;;;;52.17;25.30;;;;;;;8.43;67.90;100922.59;6123412;23;20025;-61
2021/11/15 10:02:18;;;;;;;55.10;24.27;;;;;;;8.43;67.68;100930.47;6123051;23;20354;-62
2021/11/15 10:04:46;;;;;;;45.53;22.98;;;;;;;8.45;68.06;100933.91;6123507;23;20036;-61
2021/11/15 10:07:13;;;;;;;52.92;25.42;;;;;;;8.46;67.92;100934.78;6123120;23;20037;-62
2021/11/15 10:09:42;;;;;;;50.03;25.02;;;;;;;8.47;67.88;100937.34;6123356;23;20073;-61
2021/11/15 10:12:14;;;;;;;48.63;24.00;;;;;;;8.47;67.87;100944.34;6123739;23;20057;-65
2021/11/15 10:15:02;;;;;;;50.53;23.10;;;;;;;8.47;68.04;100941.72;6097545;23;20448;-61
2021/11/15 10:17:40;;;;;;;50.13;23.67;;;;;;;8.50;67.58;100944.28;6122220;23;20026;-64
2021/11/15 10:20:08;;;;;;;50.35;23.58;;;;;;;8.53;67.62;100943.34;6121144;23;20073;-62
2021/11/15 10:22:35;;;;;;;43.33;22.50;;;;;;;8.54;67.71;100932.81;6123343;23;20025;-62
2021/11/15 10:25:02;;;;;;;48.28;21.40;;;;;;;8.54;67.69;100937.19;6123027;23;20026;-61
2021/11/15 10:27:32;;;;;;;43.90;21.65;;;;;;;8.53;67.55;100933.72;6123474;23;20030;-62
2021/11/15 10:30:09;;;;;;;44.63;22.25;;;;;;;8.48;67.32;100927.69;6122716;23;20517;-62
2021/11/15 10:32:43;;;;;;;40.40;21.40;;;;;;;8.51;67.62;100927.63;6123562;23;20040;-62
2021/11/15 10:35:09;;;;;;;44.22;21.20;;;;;;;8.50;67.55;100930.28;6097475;23;20344;-63
2021/11/15 10:37:39;;;;;;;42.78;20.45;;;;;;;8.48;67.41;100930.31;6097364;23;20077;-61
2021/11/15 10:40:11;;;;;;;35.58;20.00;;;;;;;8.46;67.14;100938.25;6123366;23;20025;-60
2021/11/15 10:42:48;;;;;;;35.43;19.97;;;;;;;8.43;66.98;100938.34;6097716;23;20030;-61
2021/11/15 10:45:16;;;;;;;31.95;17.77;;;;;;;8.45;67.01;100931.28;6097377;23;20044;-63
2021/11/15 10:47:57;;;;;;;30.00;17.55;;;;;;;8.41;66.82;100932.28;6097703;23;20022;-61
2021/11/15 10:50:48;;;;;;;28.80;17.63;;;;;;;8.42;66.98;100923.53;6122941;23;20026;-61
2021/11/15 10:53:25;;;;;;;32.10;18.63;;;;;;;8.42;66.95;100918.28;6122970;23;20089;-61
2021/11/15 10:56:34;;;;;;;31.83;18.70;;;;;;;8.41;67.09;100915.69;6123289;23;20022;-62
2021/11/15 10:59:15;;;;;;;33.17;18.20;;;;;;;8.42;67.07;100907.78;6123831;23;20030;-61
2021/11/15 11:01:45;;;;;;;28.40;18.02;;;;;;;8.45;67.24;100905.03;6097922;23;20021;-62
2021/11/15 11:04:16;;;;;;;32.80;18.73;;;;;;;8.46;67.02;100898.88;6122963;23;20022;-61
2021/11/15 11:06:55;;;;;;;29.25;17.65;;;;;;;8.43;66.78;100891.13;6123067;23;20063;-61
2021/11/15 11:09:39;;;;;;;31.10;18.48;;;;;;;8.45;66.71;100891.91;6122911;23;20030;-63
2021/11/15 11:12:30;;;;;;;29.40;17.52;;;;;;;8.46;66.50;100880.50;6122947;23;20077;-61
2021/11/15 11:26:33;;;;;;;34.22;19.33;;;;;;;8.46;66.69;100877.88;6124945;23;20022;-64
2021/11/15 11:29:12;;;;;;;33.25;19.70;;;;;;;8.47;66.81;100878.75;6124766;23;20058;-61
2021/11/15 11:31:43;;;;;;;32.47;19.02;;;;;;;8.46;66.58;100875.25;6124348;23;20022;-62
2021/11/15 11:34:14;;;;;;;34.15;19.38;;;;;;;8.45;66.82;100880.59;6099801;23;20018;-61
2021/11/15 11:36:41;;;;;;;36.25;19.20;;;;;;;8.43;66.43;100880.63;6099144;23;20022;-62